Flight Track Log - Related Links

Times and Time Zones

All times are in EDT time to prevent confusion due to time zone crossing. See the CCA1226 flight status page for this flight to view local times or setup timezone preferences in your user account.

Time Position Orientation Groundspeed Altitude Reporting Facility
EDT Latitude Longitude Course Direction KTS MPH feet Rate Location/Type
Fri 10:17:00 AM 26.7513 110.6186 19° North  Level Estimated
Fri 10:18:00 AM 26.8608 110.6606 19° North  Level Estimated
Fri 10:19:00 AM 26.9702 110.7027 19° North  Level Estimated
Fri 10:20:00 AM 27.0796 110.7448 19° North  Level Estimated
Fri 10:21:00 AM 27.1889 110.7870 19° North  Level Estimated
Fri 10:22:00 AM 27.2983 110.8293 19° North  Level Estimated
Fri 10:23:00 AM 27.4077 110.8717 19° North  Level Estimated
Fri 10:24:00 AM 27.5170 110.9142 19° North  Level Estimated
Fri 10:25:00 AM 27.6264 110.9567 19° North  Level Estimated
Fri 10:26:00 AM 27.7357 110.9994 19° North  Level Estimated
Fri 10:27:00 AM 27.8450 111.0421 19° North  Level Estimated
Fri 10:28:00 AM 27.9543 111.0849 19° North  Level Estimated
Fri 10:29:00 AM 28.0636 111.1278 19° North  Level Estimated
Fri 10:30:00 AM 28.1729 111.1708 19° North  Level Estimated
Fri 10:31:00 AM 28.2821 111.2139 19° North  Level Estimated
Fri 10:32:00 AM 28.3914 111.2570 19° North  Level Estimated
Fri 10:33:00 AM 28.5006 111.3003 19° North  Level Estimated
Fri 10:34:00 AM 28.6098 111.3436 19° North  Level Estimated
Fri 10:35:00 AM 28.7190 111.3871 19° North  Level Estimated
Fri 10:36:00 AM 28.8282 111.4306 19° North  Level Estimated
Fri 10:37:00 AM 28.9374 111.4742 19° North  Level Estimated
Fri 10:38:00 AM 29.0465 111.5179 19° North  Level Estimated
Fri 10:39:00 AM 29.1557 111.5617 19° North  Level Estimated
Fri 10:40:00 AM 29.2648 111.6056 19° North  Level Estimated
Fri 10:41:00 AM 29.3739 111.6496 19° North  Level Estimated
Fri 10:42:00 AM 29.4830 111.6937 19° North  Level Estimated
Fri 10:43:00 AM 29.5921 111.7378 19° North  Level Estimated
Fri 10:44:00 AM 29.7012 111.7821 19° North  Level Estimated
Fri 10:45:00 AM 29.8103 111.8265 19° North  Level Estimated
Fri 10:46:00 AM 29.9193 111.8709 19° North  Level Estimated
Fri 10:47:00 AM 30.0283 111.9155 19° North  Level Estimated
Fri 10:48:00 AM 30.1374 111.9602 20° North  Level Estimated
Fri 10:49:00 AM 30.2463 112.0049 20° North  Level Estimated
Fri 10:50:00 AM 30.3553 112.0498 20° North  Level Estimated
Fri 10:51:00 AM 30.4643 112.0947 20° North  Level Estimated
Fri 10:52:00 AM 30.5733 112.1398 20° North  Level Estimated
Fri 10:53:00 AM 30.6822 112.1850 20° North  Level Estimated
Fri 10:54:00 AM 30.7911 112.2302 20° North  Level Estimated
Fri 10:55:00 AM 30.9000 112.2756 20° North  Level Estimated
Fri 10:56:00 AM 31.0089 112.3210 20° North  Level Estimated
Fri 10:57:00 AM 31.1178 112.3666 20° North  Level Estimated
Fri 10:58:00 AM 31.2267 112.4123 20° North  Level Estimated
Fri 10:59:00 AM 31.3355 112.4581 20° North  Level Estimated
Fri 11:00:00 AM 31.4443 112.5040 20° North  Level Estimated
Fri 11:01:00 AM 31.5531 112.5500 20° North  Level Estimated
Fri 11:02:00 AM 31.6619 112.5961 20° North  Level Estimated
Fri 11:03:00 AM 31.7707 112.6423 20° North  Level Estimated
Fri 11:04:00 AM 31.8794 112.6886 20° North  Level Estimated
Fri 11:05:00 AM 31.9882 112.7350 20° North  Level Estimated
Fri 11:06:00 AM 32.0969 112.7816 20° North  Level Estimated
Fri 11:07:00 AM 32.2056 112.8282 20° North  Level Estimated
Fri 11:08:00 AM 32.3143 112.8750 20° North  Level Estimated
Fri 11:09:00 AM 32.4230 112.9218 20° North  Level Estimated
Fri 11:10:00 AM 32.5317 112.9688 20° North  Level Estimated
Fri 11:11:00 AM 32.6403 113.0159 20° North  Level Estimated
Fri 11:12:00 AM 32.7489 113.0631 20° North  Level Estimated
Fri 11:13:00 AM 32.8575 113.1105 20° North  Level Estimated
Fri 11:14:00 AM 32.9661 113.1579 20° North  Level Estimated
Fri 11:15:00 AM 33.0747 113.2055 20° North  Level Estimated
Fri 11:16:00 AM 33.1832 113.2532 20° North  Level Estimated
Fri 11:17:00 AM 33.2918 113.3010 20° North  Level Estimated
Fri 11:18:00 AM 33.4003 113.3489 20° North  Level Estimated
Fri 11:19:00 AM 33.5088 113.3969 20° North  Level Estimated
Fri 11:20:00 AM 33.6172 113.4451 20° North  Level Estimated
Fri 11:21:00 AM 33.7257 113.4933 20° North  Level Estimated
Fri 11:22:00 AM 33.8341 113.5418 20° North  Level Estimated
Fri 11:23:00 AM 33.9426 113.5903 20° North  Level Estimated
Fri 11:24:00 AM 34.0510 113.6389 20° North  Level Estimated
Fri 11:25:00 AM 34.1594 113.6877 20° North  Level Estimated
Fri 11:26:00 AM 34.2677 113.7366 20° North  Level Estimated
Fri 11:27:00 AM 34.3760 113.7856 20° North  Level Estimated
Fri 11:28:00 AM 34.4844 113.8348 21° North  Level Estimated
Fri 11:29:00 AM 34.5927 113.8841 21° North  Level Estimated
Fri 11:30:00 AM 34.7010 113.9335 21° North  Level Estimated
Fri 11:31:00 AM 34.8092 113.9830 21° North  Level Estimated
Fri 11:32:00 AM 34.9175 114.0327 21° North  Level Estimated
Fri 11:33:00 AM 35.0257 114.0825 21° North  Level Estimated
Fri 11:34:00 AM 35.1339 114.1324 21° North  Level Estimated
Fri 11:35:00 AM 35.2421 114.1825 21° North  Level Estimated
Fri 11:36:00 AM 35.3502 114.2327 21° North  Level Estimated
Fri 11:37:00 AM 35.4584 114.2830 21° North  Level Estimated
Fri 11:38:00 AM 35.5665 114.3335 21° North  Level Estimated
Fri 11:39:00 AM 35.6746 114.3841 21° North  Level Estimated
Fri 11:40:00 AM 35.7827 114.4348 21° North  Level Estimated
Fri 11:41:00 AM 35.8907 114.4857 21° North  Level Estimated
Fri 11:42:00 AM 35.9988 114.5367 21° North  Level Estimated
Fri 11:43:00 AM 36.1068 114.5879 21° North  Level Estimated
Fri 11:44:00 AM 36.2148 114.6392 21° North  Level Estimated
Fri 11:45:00 AM 36.3228 114.6906 21° North  Level Estimated
Fri 11:46:00 AM 36.4307 114.7422 21° North  Level Estimated
Fri 11:47:00 AM 36.5386 114.7939 21° North  Level Estimated
Fri 11:48:00 AM 36.6465 114.8458 21° North  Level Estimated
Fri 11:49:00 AM 36.7544 114.8978 21° North  Level Estimated
Fri 11:50:00 AM 36.8623 114.9500 21° North  Level Estimated
Fri 11:51:00 AM 36.9701 115.0023 21° North  Level Estimated
Fri 11:52:00 AM 37.0779 115.0547 21° North  Level Estimated
Fri 11:53:00 AM 37.1857 115.1074 21° North  Level Estimated
Fri 11:54:00 AM 37.2935 115.1601 21° North  Level Estimated
Fri 11:55:00 AM 37.4012 115.2130 21° North  Level Estimated
Fri 11:56:00 AM 37.5089 115.2661 21° North  Level Estimated
Fri 11:57:00 AM 37.6166 115.3193 21° North  Level Estimated
Fri 11:58:00 AM 37.7243 115.3727 21° North  Level Estimated
Fri 11:59:00 AM 37.8319 115.4262 21° North  Level Estimated
Fri 12:00:00 PM 37.9395 115.4799 21° North  Level Estimated
Fri 12:01:00 PM 38.0471 115.5337 22° Northeast  Level Estimated
Fri 12:02:00 PM 38.1547 115.5877 22° Northeast  Level Estimated
Fri 12:03:00 PM 38.2623 115.6419 22° Northeast  Level Estimated
Fri 12:04:00 PM 38.3698 115.6962 22° Northeast  Level Estimated
Fri 12:05:00 PM 38.4773 115.7507 22° Northeast  Level Estimated
Fri 12:06:00 PM 38.5848 115.8053 22° Northeast  Level Estimated
Fri 12:07:00 PM 38.6922 115.8601 22° Northeast  Level Estimated
Fri 12:08:00 PM 38.7996 115.9151 22° Northeast  Level Estimated
Fri 12:09:00 PM 38.9070 115.9702 22° Northeast  Level Estimated
Fri 12:10:00 PM 39.0144 116.0255 22° Northeast  Level Estimated
Fri 12:11:00 PM 39.1217 116.0810 22° Northeast  Level Estimated
Fri 12:12:00 PM 39.2291 116.1367 22° Northeast  Level Estimated
Fri 12:13:00 PM 39.3363 116.1925 22° Northeast  Level Estimated
Fri 12:14:00 PM 39.4436 116.2485 22° Northeast  Level Estimated
Fri 12:15:00 PM 39.5508 116.3046 22° Northeast  Level Estimated
Fri 12:16:00 PM 39.6581 116.3609 22° Northeast  Level Estimated
Fri 12:17:00 PM 39.7652 116.4174 22° Northeast  Level Estimated
Fri 12:18:00 PM 39.8724 116.4741 22° Northeast  Level Estimated
Fri 12:19:00 PM 39.9795 116.5310 22° Northeast  Level Estimated
Fri 12:20:00 PM 40.0801 116.5846 22° Northeast  Level Estimated
Fri 12:21:00 PM 40.0801 116.5846 North  Level Estimated
Fri 12:22:00 PM 40.0801 116.5846 North  Level Estimated
Fri 12:23:00 PM 40.0801 116.5846 North  Level Estimated
Fri 12:24:00 PM 40.0801 116.5846 North  Level Estimated
Fri 12:25:00 PM 40.0801 116.5846 North  Level Estimated
Fri 12:26:00 PM 40.0801 116.5846 North  Level Estimated
Fri 12:27:00 PM 40.0801 116.5846 North  Level Estimated
Fri 12:28:00 PM 40.0801 116.5846 North  Level Estimated
Fri 12:29:00 PM 40.0801 116.5846 North  Level Estimated
Fri 12:30:00 PM 40.0801 116.5846 North  Level Estimated
Fri 12:31:00 PM 40.0801 116.5846 North  Level Estimated
Fri 12:32:00 PM 40.0801 116.5846 North  Level Estimated
Fri 12:33:00 PM 40.0801 116.5846 North  Level Estimated
Fri 12:34:00 PM 40.0801 116.5846 North  Level Estimated
Fri 12:35:00 PM 40.0801 116.5846 North  Level Estimated
Fri 12:36:00 PM 40.0801 116.5846 North  Level Estimated

Login

Don't have an account? Register now (free) for customized features, flight alerts, and more!